Volgo-balt 229 — UHZF — position and weather

sailwx.info

Track history (hours):
 
Tides and Currents Weather Stations Pressure Air Temp Water Temp Dewpoint Dewpoint Depression Visibility Wind Speed Wind Dir Waves Ship Positions

Volgo-balt 229

Last reported at 2016-Sep-25 14:33 UTC. Time now 2016-Sep-25 15:42 UTC.
Position N 59°56' E 030°17'.

Length 113 m; draft 2.6 m.

Type: Ship. MMSI: 273336300.

Date/timePositionNaut miles runAvg speedWind from/ knotsBaromVisibWave heightAir tempDewpointWater temp
2016-Sep-25 14:33N 59°56' E 030°17'0 0.0
2016-Sep-25 12:33N 59°56' E 030°17'0 0.0
2016-Sep-25 11:33N 59°56' E 030°17'0 0.0
2016-Sep-25 10:33N 59°56' E 030°17'0 0.2
2016-Sep-25 09:33N 59°56' E 030°17'2 1.0
2016-Sep-25 07:32N 59°55' E 030°14'6 1.9
2016-Sep-25 04:33N 59°55' E 030°03'41 2.9
2016-Sep-24 14:33N 60°02' E 028°42'15 7.7
2016-Sep-24 12:33N 60°07' E 028°13'119 7.0
2016-Sep-23 19:32N 59°31' E 024°27'5 2.3
2016-Sep-23 17:32N 59°29' E 024°36'0 0.0
2016-Sep-23 16:30N 59°29' E 024°36'0 0.0
2016-Sep-23 15:34N 59°29' E 024°36'  
2016-Sep-18 19:32N 59°38' E 023°21'140 8.1
2016-Sep-18 02:09N 60°11' E 027°53'5 8.3
2016-Sep-18 01:32N 60°10' E 028°02'8 8.0
2016-Sep-18 00:32N 60°08' E 028°18'15 7.8
2016-Sep-17 22:33N 60°03' E 028°48'8 8.2
2016-Sep-17 21:32N 60°02' E 029°04'21 8.4
2016-Sep-17 19:00N 59°59' E 029°46'15 1.4
2016-Sep-17 08:25N 59°55' E 030°14'0 0.0
2016-Sep-17 07:31N 59°55' E 030°14'0 0.0
2016-Sep-17 05:31N 59°55' E 030°14'0 0.0
2016-Sep-17 04:31N 59°55' E 030°14'6 1.4
2016-Sep-17 00:33N 59°57' E 030°24'  
Track history (hours):
 
Tides and Currents Weather Stations Pressure Air Temp Water Temp Dewpoint Dewpoint Depression Visibility Wind Speed Wind Dir Waves Ship Positions

Volgo-balt 229

Last reported at 2016-Sep-25 14:33 UTC. Time now 2016-Sep-25 15:42 UTC.
Position N 59°56' E 030°17'.

Length 113 m; draft 2.6 m.

Type: Ship. MMSI: 273336300.

Date/timePositionNaut miles runAvg speedWind from/ knotsBaromVisibWave heightAir tempDewpointWater temp
2016-Sep-25 14:33N 59°56' E 030°17'0 0.0
2016-Sep-25 12:33N 59°56' E 030°17'0 0.0
2016-Sep-25 11:33N 59°56' E 030°17'0 0.0
2016-Sep-25 10:33N 59°56' E 030°17'0 0.2
2016-Sep-25 09:33N 59°56' E 030°17'2 1.0
2016-Sep-25 07:32N 59°55' E 030°14'6 1.9
2016-Sep-25 04:33N 59°55' E 030°03'41 2.9
2016-Sep-24 14:33N 60°02' E 028°42'15 7.7
2016-Sep-24 12:33N 60°07' E 028°13'119 7.0
2016-Sep-23 19:32N 59°31' E 024°27'5 2.3
2016-Sep-23 17:32N 59°29' E 024°36'0 0.0
2016-Sep-23 16:30N 59°29' E 024°36'0 0.0
2016-Sep-23 15:34N 59°29' E 024°36'  
2016-Sep-18 19:32N 59°38' E 023°21'140 8.1
2016-Sep-18 02:09N 60°11' E 027°53'5 8.3
2016-Sep-18 01:32N 60°10' E 028°02'8 8.0
2016-Sep-18 00:32N 60°08' E 028°18'15 7.8
2016-Sep-17 22:33N 60°03' E 028°48'8 8.2
2016-Sep-17 21:32N 60°02' E 029°04'21 8.4
2016-Sep-17 19:00N 59°59' E 029°46'15 1.4
2016-Sep-17 08:25N 59°55' E 030°14'0 0.0
2016-Sep-17 07:31N 59°55' E 030°14'0 0.0
2016-Sep-17 05:31N 59°55' E 030°14'0 0.0
2016-Sep-17 04:31N 59°55' E 030°14'6 1.4
2016-Sep-17 00:33N 59°57' E 030°24'  

Dump ship's entire track history